You are listening to:
KJFK Tower - New York, New York, United States

KJFK 201551Z 29011G19KT 10SM SCT023 BKN034 BKN250 04/M01 A2990 RMK AO2 SLP123 T00391011

If stream doesn't start automatically press the play button
If stream stops then reload player then press play